createdAt,value
2022-09-28T00:01:44.592Z,9.10
2022-09-28T00:04:12.202Z,9.10
2022-09-28T00:06:39.097Z,9.10
2022-09-28T00:09:05.862Z,9.20
2022-09-28T00:11:33.233Z,9.10
2022-09-28T00:14:03.471Z,9.10
2022-09-28T00:16:36.038Z,9.10
2022-09-28T00:19:03.889Z,9.10
2022-09-28T00:21:34.416Z,9.10
2022-09-28T00:24:12.818Z,9.10
2022-09-28T00:26:44.361Z,9.10
2022-09-28T00:29:26.858Z,9.00
2022-09-28T00:31:59.787Z,9.00
2022-09-28T00:34:27.306Z,9.00
2022-09-28T00:36:54.158Z,9.00
2022-09-28T00:39:21.438Z,9.00
2022-09-28T00:41:48.407Z,8.90
2022-09-28T00:44:26.909Z,8.90
2022-09-28T00:47:01.528Z,8.90
2022-09-28T00:49:38.998Z,8.90
2022-09-28T00:52:07.847Z,8.90
2022-09-28T00:54:35.714Z,8.90
2022-09-28T00:57:03.380Z,8.90
2022-09-28T00:59:31.934Z,8.90
2022-09-28T01:01:58.680Z,8.90
2022-09-28T01:04:29.750Z,8.90
2022-09-28T01:06:58.533Z,8.90
2022-09-28T01:09:27.094Z,8.80
2022-09-28T01:11:55.103Z,8.90
2022-09-28T01:14:25.524Z,8.90
2022-09-28T01:17:20.822Z,8.90
2022-09-28T01:20:11.622Z,8.90
2022-09-28T01:23:01.731Z,8.90
2022-09-28T01:25:57.281Z,8.90
2022-09-28T01:28:29.806Z,8.90
2022-09-28T01:31:09.497Z,8.90
2022-09-28T01:33:44.946Z,8.80
2022-09-28T01:36:25.179Z,8.80
2022-09-28T01:38:58.054Z,8.80
2022-09-28T01:41:28.714Z,8.80
2022-09-28T01:43:57.431Z,8.70
2022-09-28T01:46:30.281Z,8.70
2022-09-28T01:48:58.770Z,8.70
2022-09-28T01:52:12.730Z,8.70
2022-09-28T01:54:43.309Z,8.60
2022-09-28T01:57:17.420Z,8.60
2022-09-28T01:59:57.493Z,8.60
2022-09-28T02:02:35.391Z,8.60
2022-09-28T02:05:10.762Z,8.80
2022-09-28T02:07:45.169Z,8.60
2022-09-28T02:10:24.595Z,8.50
2022-09-28T02:12:57.255Z,8.60
2022-09-28T02:15:45.074Z,8.50
2022-09-28T02:18:11.976Z,8.50
2022-09-28T02:20:41.002Z,8.50
2022-09-28T02:23:09.109Z,8.40
2022-09-28T02:25:47.661Z,8.40
2022-09-28T02:28:14.537Z,8.40
2022-09-28T02:30:45.637Z,8.30
2022-09-28T02:33:21.426Z,8.40
2022-09-28T02:35:48.072Z,8.40
2022-09-28T02:38:15.610Z,8.40
2022-09-28T02:40:49.426Z,8.40
2022-09-28T02:43:26.771Z,8.30
2022-09-28T02:45:59.438Z,8.40
2022-09-28T02:48:44.671Z,8.30
2022-09-28T02:51:17.835Z,8.30
2022-09-28T02:54:02.823Z,8.30
2022-09-28T02:56:58.341Z,8.30
2022-09-28T02:59:51.889Z,8.30
2022-09-28T03:02:21.733Z,8.30
2022-09-28T03:05:21.891Z,8.20
2022-09-28T03:08:02.071Z,8.20
2022-09-28T03:10:38.757Z,8.20
2022-09-28T03:13:06.815Z,8.20
2022-09-28T03:15:35.712Z,8.20
2022-09-28T03:18:03.070Z,8.10
2022-09-28T03:20:31.946Z,8.20
2022-09-28T03:23:23.297Z,8.10
2022-09-28T03:25:45.192Z,8.20
2022-09-28T03:28:11.855Z,8.10
2022-09-28T03:30:39.314Z,8.10
2022-09-28T03:33:06.938Z,8.10
2022-09-28T03:35:33.862Z,8.10
2022-09-28T03:38:00.501Z,8.10
2022-09-28T03:40:27.205Z,8.10
2022-09-28T03:42:54.072Z,8.10
2022-09-28T03:45:20.707Z,8.00
2022-09-28T03:47:48.599Z,8.00
2022-09-28T03:50:15.978Z,8.20
2022-09-28T03:52:42.764Z,7.90
2022-09-28T03:55:09.917Z,7.90
2022-09-28T03:57:36.867Z,7.90
2022-09-28T04:00:05.686Z,8.10
2022-09-28T04:02:34.646Z,7.80
2022-09-28T04:05:01.543Z,7.80
2022-09-28T04:07:31.115Z,7.80
2022-09-28T04:09:58.156Z,7.80
2022-09-28T04:12:24.746Z,7.80
2022-09-28T04:14:51.369Z,7.80
2022-09-28T04:17:18.042Z,7.80
2022-09-28T04:19:44.747Z,7.80
2022-09-28T04:22:11.484Z,7.80
2022-09-28T04:24:38.223Z,7.90
2022-09-28T04:27:23.384Z,7.90
2022-09-28T04:29:49.975Z,8.00
2022-09-28T04:32:16.557Z,8.10
2022-09-28T04:34:44.360Z,8.00
2022-09-28T04:37:11.313Z,8.10
2022-09-28T04:39:38.076Z,8.10
2022-09-28T04:42:05.495Z,8.20
2022-09-28T04:44:32.111Z,8.20
2022-09-28T04:47:01.741Z,8.20
2022-09-28T04:49:31.693Z,8.20
2022-09-28T04:51:58.281Z,8.40
2022-09-28T04:54:24.898Z,8.20
2022-09-28T04:56:52.475Z,8.20
2022-09-28T04:59:19.060Z,8.30
2022-09-28T05:01:45.662Z,8.20
2022-09-28T05:04:12.455Z,8.30
2022-09-28T05:06:39.046Z,8.30
2022-09-28T05:09:05.912Z,8.30
2022-09-28T05:11:32.512Z,8.20
2022-09-28T05:13:59.104Z,8.20
2022-09-28T05:16:26.718Z,8.10
2022-09-28T05:18:56.864Z,8.10
2022-09-28T05:21:25.350Z,8.10
2022-09-28T05:23:52.491Z,8.10
2022-09-28T05:26:19.203Z,8.10
2022-09-28T05:28:45.808Z,8.10
2022-09-28T05:31:12.533Z,8.20
2022-09-28T05:33:39.475Z,8.00
2022-09-28T05:36:10.875Z,8.10
2022-09-28T05:38:37.908Z,8.10
2022-09-28T05:41:06.719Z,8.10
2022-09-28T05:43:33.733Z,8.10
2022-09-28T05:46:00.960Z,8.10
2022-09-28T05:48:28.248Z,8.10
2022-09-28T05:50:55.207Z,8.10
2022-09-28T05:53:21.902Z,8.10
2022-09-28T05:55:48.783Z,8.10
2022-09-28T05:58:15.998Z,8.10
2022-09-28T06:00:43.085Z,8.10
2022-09-28T06:03:14.275Z,8.10
2022-09-28T06:05:41.513Z,8.10
2022-09-28T06:08:10.473Z,8.10
2022-09-28T06:10:37.501Z,8.10
2022-09-28T06:13:04.938Z,8.10
2022-09-28T06:15:33.558Z,8.10
2022-09-28T06:18:06.372Z,8.10
2022-09-28T06:20:38.411Z,8.10
2022-09-28T06:23:05.103Z,8.00
2022-09-28T06:25:32.191Z,8.10
2022-09-28T06:28:02.991Z,8.10
2022-09-28T06:30:31.441Z,8.20
2022-09-28T06:32:59.797Z,8.10
2022-09-28T06:35:29.035Z,8.10
2022-09-28T06:37:56.091Z,8.10
2022-09-28T06:40:23.061Z,8.10
2022-09-28T06:43:14.807Z,8.00
2022-09-28T06:45:42.671Z,8.10
2022-09-28T06:48:11.210Z,8.10
2022-09-28T06:50:40.725Z,8.20
2022-09-28T06:53:10.567Z,8.20
2022-09-28T06:55:49.035Z,8.30
2022-09-28T06:58:19.504Z,8.30
2022-09-28T07:00:47.769Z,8.30
2022-09-28T07:03:17.352Z,8.30
2022-09-28T07:05:46.492Z,8.40
2022-09-28T07:08:14.332Z,8.40
2022-09-28T07:10:46.630Z,8.40
2022-09-28T07:13:40.873Z,8.30
2022-09-28T07:16:01.847Z,8.30
2022-09-28T07:18:29.914Z,8.30
2022-09-28T07:20:57.423Z,8.30
2022-09-28T07:23:26.151Z,8.70
2022-09-28T07:25:56.395Z,8.50
2022-09-28T07:28:23.368Z,8.60
2022-09-28T07:30:50.213Z,8.60
2022-09-28T07:33:17.514Z,8.60
2022-09-28T07:35:54.351Z,8.60
2022-09-28T07:38:21.419Z,8.70
2022-09-28T07:41:06.686Z,8.60
2022-09-28T07:43:33.714Z,8.60
2022-09-28T07:46:00.380Z,8.70
2022-09-28T07:48:27.034Z,8.70
2022-09-28T07:50:56.705Z,8.70
2022-09-28T07:53:25.476Z,8.70
2022-09-28T07:56:02.077Z,8.80
2022-09-28T07:58:29.286Z,8.80
2022-09-28T08:00:55.960Z,8.90
2022-09-28T08:03:22.610Z,8.90
2022-09-28T08:05:49.742Z,8.90
2022-09-28T08:08:16.557Z,9.00
2022-09-28T08:10:47.185Z,9.20
2022-09-28T08:13:16.240Z,9.10
2022-09-28T08:15:42.911Z,9.30
2022-09-28T08:18:10.233Z,9.30
2022-09-28T08:20:55.311Z,9.30
2022-09-28T08:23:23.199Z,9.30
2022-09-28T08:25:52.481Z,9.20
2022-09-28T08:28:19.561Z,9.30
2022-09-28T08:30:47.561Z,9.30
2022-09-28T08:33:17.877Z,9.40
2022-09-28T08:35:46.752Z,9.40
2022-09-28T08:38:13.851Z,9.30
2022-09-28T08:40:49.134Z,9.30
2022-09-28T08:43:29.342Z,9.40
2022-09-28T08:45:58.137Z,9.40
2022-09-28T08:49:13.554Z,9.50
2022-09-28T08:51:55.842Z,9.60
2022-09-28T08:54:40.485Z,10.00
2022-09-28T08:57:20.412Z,10.10
2022-09-28T08:59:53.554Z,10.20
2022-09-28T09:02:34.203Z,10.20
2022-09-28T09:05:03.507Z,10.10
2022-09-28T09:07:48.686Z,10.00
2022-09-28T09:10:38.643Z,10.10
2022-09-28T09:14:03.980Z,10.20
2022-09-28T09:16:44.446Z,10.30
2022-09-28T09:19:28.574Z,10.30
2022-09-28T09:22:01.907Z,10.30
2022-09-28T09:24:58.820Z,10.50
2022-09-28T09:28:07.904Z,10.70
2022-09-28T09:30:47.368Z,10.80
2022-09-28T09:33:38.302Z,11.20
2022-09-28T09:36:07.726Z,11.10
2022-09-28T09:38:46.447Z,11.20
2022-09-28T09:41:55.941Z,11.30
2022-09-28T09:44:49.292Z,11.30
2022-09-28T09:47:32.197Z,11.40
2022-09-28T09:50:25.119Z,11.30
2022-09-28T09:53:09.464Z,11.20
2022-09-28T09:55:43.677Z,11.20
2022-09-28T09:58:17.772Z,11.20
2022-09-28T10:00:47.918Z,12.10
2022-09-28T10:03:20.383Z,12.80
2022-09-28T10:05:54.107Z,13.80
2022-09-28T10:08:23.710Z,14.70
2022-09-28T10:10:56.305Z,15.00
2022-09-28T10:13:23.268Z,15.40
2022-09-28T10:15:51.501Z,15.70
2022-09-28T10:18:20.895Z,16.10
2022-09-28T10:20:47.689Z,16.10
2022-09-28T10:23:27.897Z,16.20
2022-09-28T10:26:02.156Z,16.10
2022-09-28T10:28:48.612Z,16.40
2022-09-28T10:31:38.329Z,16.40
2022-09-28T10:34:06.950Z,16.60
2022-09-28T10:36:47.331Z,16.70
2022-09-28T10:39:31.731Z,16.70
2022-09-28T10:42:06.063Z,16.60
2022-09-28T10:44:35.061Z,16.10
2022-09-28T10:47:05.230Z,15.60
2022-09-28T10:49:45.835Z,15.20
2022-09-28T10:52:40.325Z,14.90
2022-09-28T10:55:27.977Z,14.60
2022-09-28T10:57:55.165Z,14.80
2022-09-28T11:00:40.057Z,15.00
2022-09-28T11:03:17.652Z,15.20
2022-09-28T11:05:54.069Z,15.70
2022-09-28T11:08:26.298Z,15.60
2022-09-28T11:11:11.569Z,15.70
2022-09-28T11:13:00.393Z,15.80
2022-09-28T11:13:55.769Z,15.10
2022-09-28T11:16:34.109Z,14.90
2022-09-28T11:19:28.378Z,15.00
2022-09-28T11:21:55.122Z,14.70
2022-09-28T11:24:25.385Z,14.50
2022-09-28T11:27:02.066Z,14.50
2022-09-28T11:29:36.935Z,14.70
2022-09-28T11:32:05.582Z,14.70
2022-09-28T11:34:58.497Z,14.90
2022-09-28T11:38:01.427Z,14.80
2022-09-28T11:40:31.148Z,14.80
2022-09-28T11:43:15.769Z,14.40
2022-09-28T11:46:03.690Z,14.40
2022-09-28T11:48:41.999Z,14.40
2022-09-28T11:48:51.552Z,17.10
2022-09-28T11:51:16.054Z,14.40
2022-09-28T11:53:50.418Z,14.40
2022-09-28T11:56:32.320Z,14.60
2022-09-28T11:59:28.484Z,15.00
2022-09-28T12:02:19.246Z,14.60
2022-09-28T12:04:58.560Z,14.60
2022-09-28T12:07:37.235Z,14.80
2022-09-28T12:10:26.874Z,14.90
2022-09-28T12:13:10.074Z,15.10
2022-09-28T12:16:38.990Z,15.40
2022-09-28T12:19:12.886Z,15.20
2022-09-28T12:21:51.351Z,15.40
2022-09-28T12:24:26.613Z,15.50
2022-09-28T12:27:17.382Z,15.60
2022-09-28T12:29:56.053Z,15.80
2022-09-28T12:32:44.226Z,15.60
2022-09-28T12:35:14.234Z,15.60
2022-09-28T12:37:54.651Z,15.50
2022-09-28T12:40:34.273Z,15.60
2022-09-28T12:43:14.508Z,15.60
2022-09-28T12:46:17.966Z,15.60
2022-09-28T12:52:02.610Z,15.60
2022-09-28T12:54:47.198Z,15.50
2022-09-28T12:57:36.670Z,15.40
2022-09-28T13:00:17.153Z,15.30
2022-09-28T13:03:02.662Z,15.30
2022-09-28T13:05:56.444Z,15.40
2022-09-28T13:08:58.777Z,15.40
2022-09-28T13:11:44.692Z,15.50
2022-09-28T13:14:11.290Z,15.40
2022-09-28T13:17:00.963Z,15.20
2022-09-28T13:19:43.344Z,15.10
2022-09-28T13:22:09.902Z,15.00
2022-09-28T13:24:44.357Z,15.00
2022-09-28T13:27:17.147Z,15.00
2022-09-28T13:29:44.301Z,14.90
2022-09-28T13:32:12.631Z,14.80
2022-09-28T13:34:39.540Z,14.90
2022-09-28T13:37:18.775Z,14.80
2022-09-28T13:39:45.333Z,14.80
2022-09-28T13:42:46.042Z,14.80
2022-09-28T13:45:21.455Z,14.80
2022-09-28T13:47:56.940Z,15.10
2022-09-28T13:50:45.013Z,15.00
2022-09-28T13:53:31.034Z,15.10
2022-09-28T13:56:42.154Z,14.80
2022-09-28T13:59:23.823Z,14.90
2022-09-28T14:02:00.735Z,15.10
2022-09-28T14:04:54.896Z,15.30
2022-09-28T14:07:26.117Z,15.30
2022-09-28T14:10:24.494Z,15.30
2022-09-28T14:12:52.835Z,15.50
2022-09-28T14:15:28.808Z,15.70
2022-09-28T14:18:24.714Z,15.80
2022-09-28T14:21:19.331Z,15.70
2022-09-28T14:23:50.583Z,15.50
2022-09-28T14:26:58.806Z,15.40
2022-09-28T14:29:36.162Z,15.40
2022-09-28T14:32:23.218Z,15.30
2022-09-28T14:35:03.612Z,15.00
2022-09-28T14:37:53.101Z,14.70
2022-09-28T14:40:39.743Z,14.70
2022-09-28T14:43:26.750Z,14.70
2022-09-28T14:46:10.826Z,14.50
2022-09-28T14:48:53.862Z,14.40
2022-09-28T14:51:30.184Z,14.30
2022-09-28T14:54:02.582Z,14.40
2022-09-28T14:56:33.251Z,14.30
2022-09-28T14:59:00.549Z,14.30
2022-09-28T15:01:27.831Z,14.30
2022-09-28T15:03:58.252Z,14.40
2022-09-28T15:06:26.819Z,14.30
2022-09-28T15:08:53.418Z,14.30
2022-09-28T15:11:26.116Z,14.20
2022-09-28T15:14:06.342Z,14.10
2022-09-28T15:16:33.319Z,14.20
2022-09-28T15:19:15.558Z,14.00
2022-09-28T15:21:43.365Z,13.90
2022-09-28T15:24:25.938Z,13.80
2022-09-28T15:26:53.114Z,13.70
2022-09-28T15:29:21.031Z,13.50
2022-09-28T15:31:51.117Z,13.30
2022-09-28T15:34:54.612Z,13.30
2022-09-28T15:37:27.890Z,13.20
2022-09-28T15:39:57.317Z,13.10
2022-09-28T15:42:24.659Z,13.00
2022-09-28T15:45:22.914Z,12.90
2022-09-28T15:47:49.639Z,12.90
2022-09-28T15:50:24.007Z,12.80
2022-09-28T15:52:56.335Z,12.70
2022-09-28T15:55:31.482Z,12.70
2022-09-28T15:58:17.048Z,12.60
2022-09-28T16:00:46.311Z,12.60
2022-09-28T16:03:21.644Z,12.60
2022-09-28T16:05:58.268Z,12.60
2022-09-28T16:08:32.886Z,12.60
2022-09-28T16:11:27.608Z,12.60
2022-09-28T16:14:06.307Z,12.60
2022-09-28T16:16:46.491Z,12.60
2022-09-28T16:19:37.865Z,12.60
2022-09-28T16:22:07.670Z,12.50
2022-09-28T16:24:36.638Z,12.60
2022-09-28T16:27:08.829Z,12.50
2022-09-28T16:29:44.871Z,12.60
2022-09-28T16:32:36.073Z,12.50
2022-09-28T16:35:27.313Z,12.50
2022-09-28T16:38:24.570Z,12.50
2022-09-28T16:40:53.828Z,12.50
2022-09-28T16:43:28.731Z,12.40
2022-09-28T16:46:09.111Z,12.30
2022-09-28T16:48:48.391Z,12.30
2022-09-28T16:51:16.479Z,12.30
2022-09-28T16:54:02.476Z,12.20
2022-09-28T16:56:29.197Z,12.20
2022-09-28T16:58:56.231Z,12.10
2022-09-28T17:01:23.977Z,12.10
2022-09-28T17:03:51.078Z,12.20
2022-09-28T17:06:20.181Z,12.10
2022-09-28T17:08:46.893Z,12.10
2022-09-28T17:11:20.406Z,12.00
2022-09-28T17:13:49.298Z,12.00
2022-09-28T17:16:18.530Z,11.90
2022-09-28T17:18:46.199Z,11.90
2022-09-28T17:21:15.946Z,11.80
2022-09-28T17:23:43.618Z,11.80
2022-09-28T17:26:31.644Z,11.70
2022-09-28T17:28:59.364Z,11.70
2022-09-28T17:31:26.473Z,11.70
2022-09-28T17:33:54.390Z,11.60
2022-09-28T17:36:21.703Z,11.50
2022-09-28T17:38:49.393Z,11.50
2022-09-28T17:41:20.495Z,11.50
2022-09-28T17:43:48.142Z,11.40
2022-09-28T17:46:27.156Z,11.40
2022-09-28T17:48:55.214Z,11.40
2022-09-28T17:51:22.484Z,11.40
2022-09-28T17:53:49.376Z,11.30
2022-09-28T17:56:15.985Z,11.20
2022-09-28T17:58:42.597Z,11.20
2022-09-28T18:01:09.739Z,11.20
2022-09-28T18:03:38.337Z,11.10
2022-09-28T18:06:09.215Z,11.10
2022-09-28T18:08:36.978Z,11.10
2022-09-28T18:11:03.662Z,11.10
2022-09-28T18:13:30.307Z,11.00
2022-09-28T18:15:57.205Z,11.00
2022-09-28T18:18:24.953Z,11.00
2022-09-28T18:20:52.116Z,11.00
2022-09-28T18:23:18.847Z,11.00
2022-09-28T18:25:46.281Z,11.00
2022-09-28T18:28:13.718Z,10.90
2022-09-28T18:30:43.714Z,10.90
2022-09-28T18:33:12.335Z,11.00
2022-09-28T18:35:39.344Z,10.80
2022-09-28T18:38:06.824Z,10.80
2022-09-28T18:40:36.493Z,10.70
2022-09-28T18:43:03.801Z,10.70
2022-09-28T18:45:30.621Z,10.70
2022-09-28T18:47:57.686Z,10.60
2022-09-28T18:50:24.326Z,10.60
2022-09-28T18:52:50.986Z,10.60
2022-09-28T18:55:17.682Z,10.60
2022-09-28T18:57:44.687Z,10.60
2022-09-28T19:00:12.241Z,10.60
2022-09-28T19:02:39.114Z,10.50
2022-09-28T19:05:06.429Z,10.50
2022-09-28T19:07:34.035Z,10.50
2022-09-28T19:10:00.671Z,10.50
2022-09-28T19:12:27.280Z,10.40
2022-09-28T19:14:53.965Z,10.40
2022-09-28T19:17:20.674Z,10.50
2022-09-28T19:19:47.272Z,10.40
2022-09-28T19:22:13.902Z,10.40
2022-09-28T19:24:40.593Z,10.40
2022-09-28T19:27:07.197Z,10.30
2022-09-28T19:29:33.832Z,10.30
2022-09-28T19:32:00.497Z,10.30
2022-09-28T19:34:30.109Z,10.30
2022-09-28T19:36:57.143Z,10.30
2022-09-28T19:39:23.869Z,10.30
2022-09-28T19:41:54.217Z,10.30
2022-09-28T19:44:26.877Z,10.20
2022-09-28T19:46:57.930Z,10.20
2022-09-28T19:49:26.692Z,10.20
2022-09-28T19:52:15.025Z,10.20
2022-09-28T19:54:54.280Z,10.20
2022-09-28T19:57:20.978Z,10.20
2022-09-28T19:59:52.781Z,10.20
2022-09-28T20:02:20.548Z,10.50
2022-09-28T20:04:47.468Z,10.10
2022-09-28T20:07:14.392Z,10.10
2022-09-28T20:09:41.900Z,10.20
2022-09-28T20:12:08.711Z,10.00
2022-09-28T20:14:38.287Z,10.10
2022-09-28T20:17:07.347Z,10.00
2022-09-28T20:19:34.827Z,10.00
2022-09-28T20:22:02.657Z,10.00
2022-09-28T20:24:29.679Z,9.90
2022-09-28T20:26:56.315Z,9.90
2022-09-28T20:29:24.158Z,9.90
2022-09-28T20:31:51.669Z,9.80
2022-09-28T20:34:18.346Z,9.80
2022-09-28T20:36:45.026Z,9.80
2022-09-28T20:39:12.689Z,9.80
2022-09-28T20:41:39.433Z,9.80
2022-09-28T20:44:06.887Z,9.70
2022-09-28T20:46:37.198Z,9.70
2022-09-28T20:49:05.287Z,9.70
2022-09-28T20:51:31.931Z,9.60
2022-09-28T20:53:59.539Z,9.60
2022-09-28T20:56:38.624Z,9.50
2022-09-28T20:59:08.089Z,9.50
2022-09-28T21:01:35.357Z,9.50
2022-09-28T21:04:04.184Z,9.50
2022-09-28T21:06:36.328Z,9.40
2022-09-28T21:09:05.094Z,9.40
2022-09-28T21:11:32.171Z,9.40
2022-09-28T21:14:01.568Z,9.50
2022-09-28T21:16:30.337Z,9.40
2022-09-28T21:18:57.068Z,9.30
2022-09-28T21:21:24.948Z,9.30
2022-09-28T21:23:55.366Z,9.30
2022-09-28T21:26:25.319Z,9.30
2022-09-28T21:29:03.537Z,9.30
2022-09-28T21:31:38.203Z,9.30
2022-09-28T21:34:05.009Z,9.20
2022-09-28T21:36:32.401Z,9.20
2022-09-28T21:38:59.031Z,9.20
2022-09-28T21:41:25.959Z,9.10
2022-09-28T21:43:52.619Z,9.10
2022-09-28T21:46:19.315Z,9.10
2022-09-28T21:48:46.302Z,9.10
2022-09-28T21:51:14.699Z,9.10
2022-09-28T21:53:41.356Z,9.00
2022-09-28T21:56:11.482Z,9.00
2022-09-28T21:58:38.441Z,9.00
2022-09-28T22:01:09.181Z,9.00
2022-09-28T22:03:36.645Z,8.90
2022-09-28T22:06:04.526Z,8.90
2022-09-28T22:08:32.670Z,9.00
2022-09-28T22:11:02.219Z,9.00
2022-09-28T22:13:30.202Z,9.00
2022-09-28T22:15:58.747Z,9.00
2022-09-28T22:18:27.426Z,9.00
2022-09-28T22:21:18.338Z,9.20
2022-09-28T22:23:45.309Z,9.00
2022-09-28T22:26:14.486Z,8.90
2022-09-28T22:28:46.892Z,8.90
2022-09-28T22:31:14.829Z,8.90
2022-09-28T22:33:41.559Z,8.90
2022-09-28T22:36:08.181Z,8.80
2022-09-28T22:38:35.241Z,8.80
2022-09-28T22:41:05.179Z,8.80
2022-09-28T22:43:31.913Z,8.80
2022-09-28T22:46:10.695Z,8.90
2022-09-28T22:48:37.629Z,8.90
2022-09-28T22:51:06.253Z,8.80
2022-09-28T22:53:33.977Z,8.70
2022-09-28T22:56:05.509Z,8.70
2022-09-28T22:58:34.000Z,8.60
2022-09-28T23:01:10.348Z,8.60
2022-09-28T23:03:39.912Z,8.60
2022-09-28T23:06:07.987Z,8.50
2022-09-28T23:08:35.350Z,8.50
2022-09-28T23:11:02.783Z,8.50
2022-09-28T23:13:30.968Z,8.50
2022-09-28T23:16:03.242Z,8.40
2022-09-28T23:18:33.822Z,8.40
2022-09-28T23:21:04.006Z,8.40
2022-09-28T23:23:31.112Z,8.40
2022-09-28T23:25:58.085Z,8.40
2022-09-28T23:28:26.427Z,8.40
2022-09-28T23:30:54.167Z,8.40
2022-09-28T23:33:21.668Z,8.30
2022-09-28T23:35:48.455Z,8.30
2022-09-28T23:38:20.171Z,8.30
2022-09-28T23:40:47.503Z,8.30
2022-09-28T23:43:15.210Z,8.30
2022-09-28T23:45:45.537Z,8.30
2022-09-28T23:48:14.787Z,8.30
2022-09-28T23:50:43.424Z,8.40
2022-09-28T23:53:11.862Z,8.30
2022-09-28T23:55:38.477Z,8.30
2022-09-28T23:58:05.200Z,8.40
